Disclaimer

Please do not use the information listed here in-flight or in-navigation, as they are not provided to us by the airports but are provided by volunteers, so they might be outdated.

Search


Regions


Airport information page

Radio informations:
Tower (TWR) - 122.1 MHz

Airport informations:
Latitude: 19° 45' 27.57" S
Longitude: 063° 21' 39.54" E
Elevation: 95 feet - 29 meters
Operating hours: Remarks
Operating agency: Civil government, landing fees and diplomatic clearance may be required
Timezone: UTC+4
Fuel: Jet A1+, Jet A1 with icing inhibitor.

Runway information:
12/30 - 4223 x 98 feet< - >1287 x 30 meters

Recent METARs:
FIMR 130300Z 10015KT 9999 SCT018 27/23 Q1018
FIMR 130400Z 11014KT 9999 SCT018 27/22 Q1018
FIMR 130400Z 11014KT 9999 SCT018 27/22 Q1018

Airport on the map: